Aeroporto :
LOGIN :

Iscrizione | Disclaimer

   EN    FR    IT 

 










Sommario :    VFR   VFR Marginale   IFR   IFR Intensivo   IFR Molto Intensivo
Visibilità : 
Base nubi : 
>= 8 km
>= 3000ft
5 / 8 km
1000 / 3000 ft
1500m / 5 km
500 / 1000 ft
800 / 1500m
200 / 500 ft
< 800m
< 200 ft
Simboli :   Temporali  Nebbia  Neve Forte  Precipitazioni Forti  Vento > 20 kt
SIGMETs :   Varie  Temporali  Ghiacco  Turbolenza  Onda orograficha  Ceneri Vulcaniche






- Altitudine del aeroporto : 626 ft
- Codice IATA : CRA


LRCV - Craiova

ULTIMO METAR :
  • 290630Z 31004KT 9999 SCT041 12/10 Q1017

METARs OBSOLETI :
  • 290600Z 32004KT 9000 BKN040 11/10 Q1017
  • 290530Z 33004KT 8000 OVC040 11/10 Q1017
  • 290500Z 31005KT 7000 OVC040 11/10 Q1017
  • 290430Z 31006KT 8000 OVC038 11/10 Q1016
  • 290400Z 30003KT 8000 OVC038 11/10 Q1016

TAF TAF LRCV
Valido dal 29 a 06 ore il 29 a 15 ore UTC


290500Z 2906/2915 VRB04KT 5000 BR BKN035
PROB30
TEMPO 2906/2907 3000 BR BKN005 BKN030
BECMG 2908/2910 9999 NSW



MetMap, La meteo Aeronautica in un colpo d'occhio ! - Copyright ORBIFLY Dicembre 2007 - Disclaimer

ORBIFLY MET'MAP TEAM :

Programmazione e sviluppo : Alexandra Zaïnal
Concezione : Baudouin d'Aumeries
Aiuto per la programmazione : Marc-Olivier Méhu
Supporto tecnico e logistico : Manuel Goepfert
Aiuto per la traduzione : Arnaldo La Scala

Contatto : metmap@orbifly.com




FONTI E CREDITI :

   NOAA